Time;durP1;ratioP1;P1;durP2;ratioP2;P2;SDS_P1;SDS_P2;PMS_P1;PMS_P2;Temp;Humidity;BMP_temperature;BMP_pressure;BME280_temperature;BME280_humidity;BME280_pressure;Samples;Min_cycle;Max_cycle;Signal;HPM_P1;HPM_P2
2022/06/17 00:00:29;;;;;;;;;;;;;;;20.23;65.06;100499.19;5340914;32;34359;-64
2022/06/17 00:03:32;;;;;;;;;;;;;;;20.44;65.43;100492.16;5356649;32;34871;-65
2022/06/17 00:06:42;;;;;;;;;;;;;;;21.25;58.95;100485.69;5340207;32;34714;-73
2022/06/17 00:09:44;;;;;;;;;;;;;;;21.54;57.40;100487.78;5356833;32;34582;-66
2022/06/17 00:12:46;;;;;;;;;;;;;;;20.69;61.10;100484.94;5338587;32;34680;-65
2022/06/17 00:15:48;;;;;;;;;;;;;;;21.35;59.20;100496.47;5343915;32;35157;-64
2022/06/17 00:18:50;;;;;;;;;;;;;;;20.89;61.02;100497.53;5358703;32;34884;-75
2022/06/17 00:21:52;;;;;;;;;;;;;;;20.58;61.89;100506.28;5344270;32;34688;-75
2022/06/17 00:24:54;;;;;;;;;;;;;;;20.54;61.79;100503.88;5357863;32;34759;-66
2022/06/17 00:27:56;;;;;;;;;;;;;;;20.35;62.83;100500.03;5344784;32;35363;-74
2022/06/17 00:30:57;;;;;;;;;;;;;;;19.68;66.54;100500.72;5358033;32;48185;-64
2022/06/17 00:34:00;;;;;;;;;;;;;;;20.38;64.58;100497.13;5344593;32;34746;-64
2022/06/17 00:37:02;;;;;;;;;;;;;;;21.11;60.13;100504.66;5346602;32;35177;-73
2022/06/17 00:40:23;;;;;;;;;;;;;;;20.67;60.64;100510.88;5337428;32;34684;-64
2022/06/17 00:43:29;;;;;;;;;;;;;;;19.59;65.57;100504.94;5345257;32;34219;-65
2022/06/17 00:46:34;;;;;;;;;;;;;;;20.12;61.55;100510.69;5357216;32;45252;-64
2022/06/17 00:49:39;;;;;;;;;;;;;;;20.01;63.54;100516.84;5341725;32;34929;-64
2022/06/17 00:52:50;;;;;;;;;;;;;;;19.49;67.13;100523.38;5351884;32;34546;-74
2022/06/17 00:56:31;;;;;;;;;;;;;;;19.04;70.72;100513.44;5354440;32;35623;-65
2022/06/17 00:59:32;;;;;;;;;;;;;;;19.51;67.64;100507.28;5282271;33;35022;-74
2022/06/17 01:02:39;;;;;;;;;;;;;;;19.96;65.88;100503.00;5289987;33;35015;-64
2022/06/17 01:05:43;;;;;;;;;;;;;;;19.59;66.67;100501.44;5343502;32;34256;-73
2022/06/17 01:12:12;;;;;;;;;;;;;;;19.72;65.57;100494.22;5355441;32;35226;-70
2022/06/17 01:15:15;;;;;;;;;;;;;;;19.62;66.16;100494.03;5340451;32;34331;-66
2022/06/17 01:18:17;;;;;;;;;;;;;;;19.93;64.30;100497.91;5360079;32;36922;-64
2022/06/17 01:21:29;;;;;;;;;;;;;;;20.14;63.20;100498.06;5342881;32;34736;-75
2022/06/17 01:24:31;;;;;;;;;;;;;;;20.12;64.10;100491.16;5348684;32;43403;-64
2022/06/17 01:27:38;;;;;;;;;;;;;;;19.27;67.50;100488.66;5351637;32;35093;-73
2022/06/17 01:30:41;;;;;;;;;;;;;;;19.60;66.95;100506.62;5341989;32;35331;-73
2022/06/17 01:33:43;;;;;;;;;;;;;;;18.83;70.91;100513.19;5358814;32;34694;-73
2022/06/17 01:36:45;;;;;;;;;;;;;;;19.27;68.84;100512.63;5343369;32;35066;-65
2022/06/17 01:39:50;;;;;;;;;;;;;;;18.80;70.80;100522.22;5337708;32;36985;-74
2022/06/17 01:42:52;;;;;;;;;;;;;;;18.79;70.58;100515.19;5339573;32;34456;-65
2022/06/17 01:45:58;;;;;;;;;;;;;;;19.69;67.25;100511.28;5331713;32;35394;-73
2022/06/17 01:49:05;;;;;;;;;;;;;;;19.78;67.05;100520.41;5352544;32;44656;-75
2022/06/17 01:52:08;;;;;;;;;;;;;;;20.14;64.73;100527.41;5342857;32;34762;-75
2022/06/17 01:55:21;;;;;;;;;;;;;;;19.67;66.06;100528.34;5357961;32;35715;-76
2022/06/17 01:58:27;;;;;;;;;;;;;;;18.86;70.28;100535.09;5341984;32;36210;-72
2022/06/17 02:01:29;;;;;;;;;;;;;;;19.21;69.40;100532.56;5352040;32;44674;-65
2022/06/17 02:04:35;;;;;;;;;;;;;;;20.17;65.08;100531.69;5347485;32;34728;-63
2022/06/17 02:07:39;;;;;;;;;;;;;;;18.65;70.00;100549.91;5342687;32;34485;-65
2022/06/17 02:10:43;;;;;;;;;;;;;;;19.37;68.04;100545.63;5355696;32;34938;-64
2022/06/17 02:13:44;;;;;;;;;;;;;;;19.15;69.31;100550.81;5338986;32;35183;-66
2022/06/17 02:16:49;;;;;;;;;;;;;;;18.48;72.00;100564.38;5356238;32;34243;-73
2022/06/17 02:19:51;;;;;;;;;;;;;;;18.73;71.07;100562.69;5340843;32;35687;-64
2022/06/17 02:22:53;;;;;;;;;;;;;;;18.56;72.40;100559.37;5348896;32;35452;-66
2022/06/17 02:25:54;;;;;;;;;;;;;;;18.63;72.65;100554.50;5351754;32;34811;-64
2022/06/17 02:28:56;;;;;;;;;;;;;;;19.87;67.50;100556.19;5342324;32;34938;-73
2022/06/17 02:32:02;;;;;;;;;;;;;;;18.23;73.92;100548.41;5358346;32;46955;-73
2022/06/17 02:35:05;;;;;;;;;;;;;;;18.45;72.88;100553.94;5343810;32;35632;-73
2022/06/17 02:38:10;;;;;;;;;;;;;;;18.64;71.51;100556.19;5357397;32;36177;-71
2022/06/17 02:41:13;;;;;;;;;;;;;;;19.21;68.86;100556.56;5320100;32;34385;-73
2022/06/17 02:44:16;;;;;;;;;;;;;;;19.68;67.07;100551.38;5343227;32;34886;-63
2022/06/17 02:47:21;;;;;;;;;;;;;;;19.21;66.48;100543.22;5358597;32;34560;-64
2022/06/17 02:50:24;;;;;;;;;;;;;;;18.73;68.14;100555.56;5342205;32;35319;-64
2022/06/17 02:53:30;;;;;;;;;;;;;;;19.55;64.48;100551.41;5357364;32;34615;-70
2022/06/17 02:56:33;;;;;;;;;;;;;;;19.79;63.40;100546.13;5341894;32;44973;-70
2022/06/17 02:59:36;;;;;;;;;;;;;;;18.44;68.62;100570.88;5355646;32;35460;-64
2022/06/17 03:02:46;;;;;;;;;;;;;;;18.34;68.34;100569.78;5344486;32;34802;-63
2022/06/17 03:05:48;;;;;;;;;;;;;;;18.11;69.70;100560.75;5342974;32;35079;-64
2022/06/17 03:08:50;;;;;;;;;;;;;;;18.07;70.14;100565.41;5355618;32;35327;-72
2022/06/17 03:11:53;;;;;;;;;;;;;;;19.08;65.31;100566.37;5338030;32;34685;-73
2022/06/17 03:15:01;;;;;;;;;;;;;;;18.72;66.56;100561.84;5355970;32;35331;-64
2022/06/17 03:18:03;;;;;;;;;;;;;;;18.58;67.37;100559.28;5342683;32;45859;-64
2022/06/17 03:21:06;;;;;;;;;;;;;;;18.46;67.77;100560.97;5347182;32;35498;-64
2022/06/17 03:24:11;;;;;;;;;;;;;;;18.59;67.71;100558.31;5348979;32;34704;-70
2022/06/17 03:27:17;;;;;;;;;;;;;;;18.75;66.58;100559.00;5343546;32;33980;-73
2022/06/17 03:30:23;;;;;;;;;;;;;;;17.97;70.42;100558.13;5357752;32;34757;-70
2022/06/17 03:33:26;;;;;;;;;;;;;;;18.23;69.40;100562.56;5342821;32;34112;-73
2022/06/17 03:36:30;;;;;;;;;;;;;;;18.10;70.41;100573.19;5344505;32;44356;-64
2022/06/17 03:39:34;;;;;;;;;;;;;;;19.09;65.85;100567.25;5323255;32;35725;-64
2022/06/17 03:42:44;;;;;;;;;;;;;;;18.64;67.03;100569.50;5323931;32;34511;-72
2022/06/17 03:45:55;;;;;;;;;;;;;;;19.56;63.66;100570.91;5356976;32;34801;-75
2022/06/17 03:49:09;;;;;;;;;;;;;;;19.11;64.42;100583.94;5340688;32;44411;-64
2022/06/17 03:52:22;;;;;;;;;;;;;;;19.87;62.24;100578.38;5356883;32;36019;-71
2022/06/17 03:55:24;;;;;;;;;;;;;;;19.41;62.97;100592.41;5343798;32;35161;-72
2022/06/17 03:58:26;;;;;;;;;;;;;;;19.97;61.63;100590.06;5330232;32;35295;-73
2022/06/17 04:01:30;;;;;;;;;;;;;;;20.28;60.24;100585.06;5357124;32;45049;-74
2022/06/17 04:04:33;;;;;;;;;;;;;;;20.31;59.79;100589.34;5341448;32;35158;-66
2022/06/17 04:07:35;;;;;;;;;;;;;;;20.64;58.52;100593.91;5356688;32;35826;-74
2022/06/17 04:10:37;;;;;;;;;;;;;;;20.37;59.01;100597.72;5342522;32;35106;-64
2022/06/17 04:13:39;;;;;;;;;;;;;;;19.90;60.42;100603.97;5352917;32;35732;-64
2022/06/17 04:16:44;;;;;;;;;;;;;;;20.00;60.64;100605.84;5342582;32;34324;-66
2022/06/17 04:19:48;;;;;;;;;;;;;;;20.36;59.55;100593.34;5340065;32;34853;-75
2022/06/17 04:22:51;;;;;;;;;;;;;;;20.47;58.44;100596.06;5356002;32;35687;-74
2022/06/17 04:25:57;;;;;;;;;;;;;;;20.79;57.92;100590.03;5339216;32;35112;-65
2022/06/17 04:29:06;;;;;;;;;;;;;;;21.43;55.95;100598.28;5356174;32;47069;-65
2022/06/17 04:32:14;;;;;;;;;;;;;;;21.34;56.08;100591.03;5339951;32;34590;-74
2022/06/17 04:35:16;;;;;;;;;;;;;;;21.25;56.31;100600.63;5348439;32;34369;-64
2022/06/17 04:38:18;;;;;;;;;;;;;;;21.51;55.08;100603.00;5349230;32;35223;-72
2022/06/17 04:41:20;;;;;;;;;;;;;;;21.17;56.02;100603.03;5320704;32;38312;-71
2022/06/17 04:44:22;;;;;;;;;;;;;;;21.09;57.20;100603.66;5354664;32;35104;-66
2022/06/17 04:47:24;;;;;;;;;;;;;;;22.22;53.47;100590.00;5342613;32;35108;-65
2022/06/17 04:50:27;;;;;;;;;;;;;;;22.48;52.10;100586.00;5358127;32;35145;-74
2022/06/17 04:53:29;;;;;;;;;;;;;;;21.70;54.42;100591.66;5339219;32;44930;-73
2022/06/17 04:56:33;;;;;;;;;;;;;;;22.11;52.81;100582.91;5348211;32;35058;-74
2022/06/17 04:59:35;;;;;;;;;;;;;;;21.81;53.09;100580.94;5348869;32;34927;-70
2022/06/17 05:02:37;;;;;;;;;;;;;;;21.54;54.51;100586.72;5344057;32;35610;-65
2022/06/17 05:05:40;;;;;;;;;;;;;;;21.32;55.65;100582.28;5359888;32;35586;-67
2022/06/17 05:08:43;;;;;;;;;;;;;;;21.72;53.99;100587.91;5340619;32;34300;-67
2022/06/17 05:11:45;;;;;;;;;;;;;;;21.81;53.77;100583.59;5357297;32;34840;-67
2022/06/17 05:14:52;;;;;;;;;;;;;;;22.41;51.93;100585.69;5340702;32;33350;-64
2022/06/17 05:17:55;;;;;;;;;;;;;;;22.03;52.81;100598.75;5344698;32;34621;-67
2022/06/17 05:20:57;;;;;;;;;;;;;;;22.88;49.63;100580.72;5356909;32;44620;-65
2022/06/17 05:23:59;;;;;;;;;;;;;;;21.74;53.36;100601.16;5343669;32;34583;-66
2022/06/17 05:27:01;;;;;;;;;;;;;;;22.76;50.58;100599.69;5358991;32;34423;-65
2022/06/17 05:30:03;;;;;;;;;;;;;;;22.83;50.46;100600.84;5343849;32;34311;-66
2022/06/17 05:33:05;;;;;;;;;;;;;;;24.16;47.01;100597.81;5359274;32;35270;-67
2022/06/17 05:36:07;;;;;;;;;;;;;;;24.19;46.63;100592.16;5344189;32;34935;-66
2022/06/17 05:39:09;;;;;;;;;;;;;;;23.89;47.23;100590.44;5329106;32;34146;-63
2022/06/17 05:42:12;;;;;;;;;;;;;;;24.41;45.44;100595.53;5347935;32;34180;-67
2022/06/17 05:45:15;;;;;;;;;;;;;;;23.23;47.91;100609.78;5341137;32;35231;-67
2022/06/17 05:48:17;;;;;;;;;;;;;;;24.16;46.20;100605.88;5357226;32;34174;-65
2022/06/17 05:51:19;;;;;;;;;;;;;;;23.99;46.84;100615.47;5341920;32;35403;-66
2022/06/17 05:54:21;;;;;;;;;;;;;;;24.20;46.17;100615.31;5354152;32;34688;-66
2022/06/17 05:57:23;;;;;;;;;;;;;;;24.36;46.03;100609.41;5342687;32;35574;-67
2022/06/17 06:00:25;;;;;;;;;;;;;;;24.63;45.06;100624.78;5342325;32;34227;-67
2022/06/17 06:03:27;;;;;;;;;;;;;;;24.24;46.03;100635.53;5354111;32;45657;-66
2022/06/17 06:06:30;;;;;;;;;;;;;;;24.98;44.58;100636.69;5339680;32;34180;-66
2022/06/17 06:09:32;;;;;;;;;;;;;;;24.99;44.31;100635.69;5350224;32;33341;-69
2022/06/17 06:15:55;;;;;;;;;;;;;;;23.94;46.46;100646.41;5349091;32;34025;-68
2022/06/17 06:18:57;;;;;;;;;;;;;;;25.01;44.03;100626.50;5345031;32;44698;-66
2022/06/17 06:21:59;;;;;;;;;;;;;;;25.01;44.47;100637.25;5337600;32;35539;-69
2022/06/17 06:25:01;;;;;;;;;;;;;;;25.28;43.49;100649.91;5367652;32;34463;-72
2022/06/17 06:28:08;;;;;;;;;;;;;;;24.83;44.27;100647.06;5340608;32;35487;-74
2022/06/17 06:31:18;;;;;;;;;;;;;;;24.53;44.62;100648.13;5352355;32;35370;-76
2022/06/17 06:34:23;;;;;;;;;;;;;;;24.28;46.00;100644.16;5342025;32;34620;-70
2022/06/17 06:37:25;;;;;;;;;;;;;;;24.84;44.67;100657.69;5342731;32;34377;-67
2022/06/17 06:40:28;;;;;;;;;;;;;;;25.08;43.97;100653.69;5333233;32;37197;-71
2022/06/17 06:43:30;;;;;;;;;;;;;;;24.56;44.93;100663.97;5343990;32;34405;-69
2022/06/17 06:46:33;;;;;;;;;;;;;;;24.15;45.86;100665.94;5353848;32;36025;-71
2022/06/17 06:49:35;;;;;;;;;;;;;;;24.71;44.43;100667.03;5344820;32;34800;-71
2022/06/17 06:52:37;;;;;;;;;;;;;;;24.37;44.77;100669.34;5356372;32;34326;-72
2022/06/17 06:55:43;;;;;;;;;;;;;;;23.84;46.25;100677.75;5345790;32;35923;-69
2022/06/17 06:58:45;;;;;;;;;;;;;;;23.60;46.69;100670.87;5338102;32;34418;-73
2022/06/17 07:01:47;;;;;;;;;;;;;;;23.97;45.92;100665.78;5357039;32;35718;-73
2022/06/17 07:04:50;;;;;;;;;;;;;;;25.51;42.48;100668.38;5342568;32;34222;-70
2022/06/17 07:07:52;;;;;;;;;;;;;;;25.87;41.45;100662.06;5357008;32;34693;-72
2022/06/17 07:10:55;;;;;;;;;;;;;;;25.84;41.33;100662.41;5335917;32;34231;-76
2022/06/17 07:13:57;;;;;;;;;;;;;;;26.06;40.46;100660.25;5357285;32;34051;-78
2022/06/17 07:17:01;;;;;;;;;;;;;;;26.51;39.77;100664.72;5348505;32;44486;-85
2022/06/17 07:20:04;;;;;;;;;;;;;;;27.81;37.19;100662.78;5355193;32;34059;-90
2022/06/17 07:23:07;;;;;;;;;;;;;;;28.14;36.38;100660.13;5357089;32;36044;-75
2022/06/17 07:26:11;;;;;;;;;;;;;;;27.52;37.81;100672.13;5346459;32;34510;-79
2022/06/17 07:29:13;;;;;;;;;;;;;;;27.43;37.96;100678.47;5362019;32;37087;-73
2022/06/17 07:32:17;;;;;;;;;;;;;;;26.96;38.71;100673.47;5351140;32;34416;-86
2022/06/17 07:35:20;;;;;;;;;;;;;;;27.08;38.56;100684.03;5359766;32;34412;-72
2022/06/17 07:41:43;;;;;;;;;;;;;;;28.62;35.88;100675.56;5335610;32;34417;-74
2022/06/17 07:44:45;;;;;;;;;;;;;;;28.19;36.59;100682.09;5359029;32;35626;-75
2022/06/17 07:47:48;;;;;;;;;;;;;;;29.44;34.66;100678.97;5338883;32;35573;-87
2022/06/17 07:50:50;;;;;;;;;;;;;;;29.51;34.12;100682.69;5353045;32;34166;-88
2022/06/17 07:53:53;;;;;;;;;;;;;;;26.36;40.14;100692.19;5351152;32;35621;-88
2022/06/17 07:56:55;;;;;;;;;;;;;;;29.01;34.94;100678.41;5351341;32;34670;-73
2022/06/17 07:59:57;;;;;;;;;;;;;;;29.02;34.52;100680.09;5357295;32;44846;-88
2022/06/17 08:03:00;;;;;;;;;;;;;;;28.89;34.50;100677.03;5345643;32;36000;-74
2022/06/17 08:06:02;;;;;;;;;;;;;;;29.78;33.67;100684.06;5363600;32;34823;-84
2022/06/17 08:09:04;;;;;;;;;;;;;;;29.42;33.12;100686.41;5351333;32;35568;-86
2022/06/17 08:12:11;;;;;;;;;;;;;;;29.21;32.88;100684.28;5336623;32;34412;-81
2022/06/17 08:15:20;;;;;;;;;;;;;;;31.44;28.96;100682.34;5342920;32;34061;-81
2022/06/17 08:18:22;;;;;;;;;;;;;;;31.43;29.31;100683.38;5344977;32;34235;-77
2022/06/17 08:21:24;;;;;;;;;;;;;;;31.63;29.02;100674.66;5358532;32;34414;-75
2022/06/17 08:24:46;;;;;;;;;;;;;;;32.08;27.23;100687.97;5351431;32;36337;-71
2022/06/17 08:27:50;;;;;;;;;;;;;;;30.97;28.44;100680.81;5353320;32;35841;-77
2022/06/17 08:30:53;;;;;;;;;;;;;;;31.88;26.83;100686.91;5342451;32;35649;-72
2022/06/17 08:33:56;;;;;;;;;;;;;;;31.51;27.57;100682.44;5349589;32;34234;-75
2022/06/17 08:36:58;;;;;;;;;;;;;;;33.16;24.76;100672.34;5334165;32;43048;-85
2022/06/17 08:40:00;;;;;;;;;;;;;;;33.96;23.44;100678.22;5328425;32;33151;-75
2022/06/17 08:43:14;;;;;;;;;;;;;;;33.22;24.24;100674.28;5352879;32;35745;-75
2022/06/17 08:46:22;;;;;;;;;;;;;;;34.09;23.39;100672.78;5343160;32;34920;-80
2022/06/17 08:49:41;;;;;;;;;;;;;;;31.72;25.65;100682.50;5367424;32;34459;-73
2022/06/17 08:52:51;;;;;;;;;;;;;;;31.48;25.84;100685.53;5349554;32;34378;-74
2022/06/17 08:56:01;;;;;;;;;;;;;;;35.00;21.25;100673.06;5344508;32;35638;-76
2022/06/17 08:59:29;;;;;;;;;;;;;;;33.94;22.61;100684.72;5357319;32;43431;-75
2022/06/17 09:02:55;;;;;;;;;;;;;;;33.95;21.74;100680.09;5342243;32;44544;-75
2022/06/17 09:06:07;;;;;;;;;;;;;;;34.79;20.26;100679.56;5345683;32;46592;-73
2022/06/17 09:09:11;;;;;;;;;;;;;;;33.70;22.10;100692.56;5354129;32;35572;-80
2022/06/17 09:12:21;;;;;;;;;;;;;;;36.54;18.52;100692.16;5340068;32;34462;-76
2022/06/17 09:16:04;;;;;;;;;;;;;;;36.51;19.31;100687.09;5355398;32;34136;-78
2022/06/17 09:19:07;;;;;;;;;;;;;;;33.79;23.20;100692.16;5290039;33;35035;-74
2022/06/17 09:22:19;;;;;;;;;;;;;;;36.19;19.96;100693.63;5286401;33;34102;-81
2022/06/17 09:25:24;;;;;;;;;;;;;;;34.40;20.30;100697.59;5356491;32;35360;-80
2022/06/17 09:28:29;;;;;;;;;;;;;;;31.91;23.54;100704.69;5349998;32;35278;-74
2022/06/17 09:31:38;;;;;;;;;;;;;;;33.64;20.95;100694.22;5359474;32;44543;-79
2022/06/17 09:34:40;;;;;;;;;;;;;;;36.38;18.65;100694.53;5354383;32;34523;-75
2022/06/17 09:37:48;;;;;;;;;;;;;;;33.08;22.44;100697.03;5344787;32;34365;-78
2022/06/17 09:40:50;;;;;;;;;;;;;;;35.40;19.51;100698.37;5354787;32;36483;-74
2022/06/17 09:44:04;;;;;;;;;;;;;;;34.95;19.66;100692.81;5342987;32;35685;-85
2022/06/17 09:47:17;;;;;;;;;;;;;;;32.87;21.96;100715.09;5357456;32;44414;-81
2022/06/17 09:50:43;;;;;;;;;;;;;;;32.52;22.41;100719.56;5343794;32;33494;-72
2022/06/17 09:53:48;;;;;;;;;;;;;;;33.61;21.61;100714.53;5338632;32;34503;-73
2022/06/17 09:56:59;;;;;;;;;;;;;;;34.71;20.56;100715.25;5359390;32;35758;-72
2022/06/17 10:00:02;;;;;;;;;;;;;;;33.66;21.80;100720.22;5344227;32;44658;-75
2022/06/17 10:03:23;;;;;;;;;;;;;;;34.22;21.00;100716.44;5372039;32;34416;-73
2022/06/17 10:06:25;;;;;;;;;;;;;;;32.81;23.33;100724.03;5340441;32;34309;-88
2022/06/17 10:09:46;;;;;;;;;;;;;;;33.69;23.19;100721.72;5349029;32;44845;-72
2022/06/17 10:13:05;;;;;;;;;;;;;;;36.22;19.58;100723.28;5354259;32;34090;-73
2022/06/17 10:19:47;;;;;;;;;;;;;;;31.35;25.20;100734.22;5350769;32;44737;-69
2022/06/17 10:23:08;;;;;;;;;;;;;;;31.49;25.01;100736.97;5347530;32;34457;-84
2022/06/17 10:26:32;;;;;;;;;;;;;;;29.76;27.88;100740.31;5348883;32;35388;-72
2022/06/17 10:29:34;;;;;;;;;;;;;;;31.10;26.35;100748.03;5357183;32;43331;-72
2022/06/17 10:32:37;;;;;;;;;;;;;;;30.17;28.31;100751.78;5346367;32;34384;-70
2022/06/17 10:35:40;;;;;;;;;;;;;;;27.81;32.29;100762.69;5345732;32;34421;-77
2022/06/17 10:38:43;;;;;;;;;;;;;;;28.89;30.85;100752.78;5342840;32;34736;-71
2022/06/17 10:41:45;;;;;;;;;;;;;;;28.86;31.59;100756.69;5332466;32;34167;-75
2022/06/17 10:44:48;;;;;;;;;;;;;;;27.86;33.21;100760.34;5357331;32;34794;-66
2022/06/17 10:47:54;;;;;;;;;;;;;;;28.84;30.79;100753.28;5346987;32;34170;-71
2022/06/17 10:50:56;;;;;;;;;;;;;;;30.10;28.00;100742.69;5354144;32;34351;-66
2022/06/17 10:53:59;;;;;;;;;;;;;;;31.76;26.13;100740.88;5332901;32;44402;-70
2022/06/17 10:57:08;;;;;;;;;;;;;;;30.69;27.89;100737.56;5345290;32;34680;-71
2022/06/17 11:00:23;;;;;;;;;;;;;;;31.83;25.88;100735.53;5354936;32;36082;-69
2022/06/17 11:03:27;;;;;;;;;;;;;;;31.44;24.53;100747.53;5345101;32;34245;-69
2022/06/17 11:06:32;;;;;;;;;;;;;;;30.59;25.58;100733.34;5356604;32;44774;-67
2022/06/17 11:09:35;;;;;;;;;;;;;;;31.67;24.64;100746.56;5332358;32;34154;-81
2022/06/17 11:12:37;;;;;;;;;;;;;;;32.24;22.42;100759.44;5354454;32;35872;-67
2022/06/17 11:15:53;;;;;;;;;;;;;;;32.12;23.67;100755.53;5346104;32;35588;-71
2022/06/17 11:18:55;;;;;;;;;;;;;;;32.99;22.39;100736.34;5340395;32;34290;-70
2022/06/17 11:22:01;;;;;;;;;;;;;;;33.85;21.61;100731.41;5359794;32;43397;-69
2022/06/17 11:25:05;;;;;;;;;;;;;;;31.18;23.98;100739.81;5340468;32;35297;-71
2022/06/17 11:28:11;;;;;;;;;;;;;;;31.40;25.01;100743.50;5354931;32;35340;-67
2022/06/17 11:31:19;;;;;;;;;;;;;;;29.81;27.03;100747.88;5341061;32;32877;-68
2022/06/17 11:34:25;;;;;;;;;;;;;;;28.89;28.97;100755.50;5339327;32;35658;-74
2022/06/17 11:37:28;;;;;;;;;;;;;;;29.72;27.63;100759.78;5354132;32;34167;-73
2022/06/17 11:40:35;;;;;;;;;;;;;;;29.76;27.60;100750.28;5319842;32;36078;-75
2022/06/17 11:43:41;;;;;;;;;;;;;;;29.81;27.72;100751.44;5355858;32;34918;-71
2022/06/17 11:47:01;;;;;;;;;;;;;;;29.47;28.13;100754.41;5340104;32;36300;-73
2022/06/17 11:50:23;;;;;;;;;;;;;;;29.10;27.33;100728.78;5344880;32;44614;-69
2022/06/17 11:53:25;;;;;;;;;;;;;;;29.13;27.59;100750.09;5357570;32;35321;-73
2022/06/17 11:56:28;;;;;;;;;;;;;;;30.25;26.14;100740.03;5331328;32;44951;-70
2022/06/17 11:59:40;;;;;;;;;;;;;;;30.21;26.19;100730.59;5357141;32;35404;-74
2022/06/17 12:02:58;;;;;;;;;;;;;;;28.19;29.71;100739.69;5344628;32;36808;-69
2022/06/17 12:06:01;;;;;;;;;;;;;;;30.01;27.62;100727.44;5341953;32;45071;-70
2022/06/17 12:09:24;;;;;;;;;;;;;;;29.20;29.46;100716.94;5359840;32;34457;-70
2022/06/17 12:12:26;;;;;;;;;;;;;;;29.38;26.60;100720.28;5332455;32;35335;-73
2022/06/17 12:15:47;;;;;;;;;;;;;;;29.26;27.21;100721.66;5359067;32;45249;-72
2022/06/17 12:18:52;;;;;;;;;;;;;;;28.42;30.49;100718.31;5346307;32;34237;-71
2022/06/17 12:22:00;;;;;;;;;;;;;;;29.38;28.88;100721.13;5345328;32;36313;-74
2022/06/17 12:25:25;;;;;;;;;;;;;;;28.68;28.05;100712.75;5359947;32;44580;-71
2022/06/17 12:28:32;;;;;;;;;;;;;;;27.94;29.75;100709.06;5333912;32;44525;-71
2022/06/17 12:31:34;;;;;;;;;;;;;;;28.99;29.42;100695.84;5360541;32;35613;-70
2022/06/17 12:34:36;;;;;;;;;;;;;;;29.60;28.40;100692.44;5345368;32;35628;-70
2022/06/17 12:37:47;;;;;;;;;;;;;;;28.72;29.01;100691.59;5352262;32;35091;-72
2022/06/17 12:40:52;;;;;;;;;;;;;;;28.74;29.96;100693.12;5332749;32;35127;-72
2022/06/17 12:44:06;;;;;;;;;;;;;;;28.28;31.09;100695.47;5344265;32;35211;-72
2022/06/17 12:47:27;;;;;;;;;;;;;;;28.75;30.55;100692.13;5360154;32;34699;-72
2022/06/17 12:54:15;;;;;;;;;;;;;;;27.54;30.11;100707.87;5345043;32;35114;-73
2022/06/17 12:57:17;;;;;;;;;;;;;;;28.10;31.40;100710.12;5358942;32;34495;-73
2022/06/17 13:00:20;;;;;;;;;;;;;;;27.39;32.23;100690.63;5342458;32;34853;-69
2022/06/17 13:03:41;;;;;;;;;;;;;;;28.23;30.18;100703.22;5358307;32;34490;-70
2022/06/17 13:06:49;;;;;;;;;;;;;;;28.57;26.39;100695.00;5342346;32;35125;-71
2022/06/17 13:09:51;;;;;;;;;;;;;;;28.26;27.52;100685.81;5341064;32;34953;-69
2022/06/17 13:13:11;;;;;;;;;;;;;;;28.80;27.01;100699.72;5356828;32;34796;-75
2022/06/17 13:16:13;;;;;;;;;;;;;;;28.73;27.77;100694.16;5338114;32;35017;-72
2022/06/17 13:19:27;;;;;;;;;;;;;;;28.28;29.14;100705.44;5359239;32;34785;-71
2022/06/17 13:22:35;;;;;;;;;;;;;;;28.91;28.39;100704.75;5342711;32;44713;-73
2022/06/17 13:25:38;;;;;;;;;;;;;;;27.90;29.57;100707.72;5345446;32;34412;-72
2022/06/17 13:28:42;;;;;;;;;;;;;;;28.15;28.87;100705.06;5360780;32;34000;-70
2022/06/17 13:31:49;;;;;;;;;;;;;;;27.16;29.74;100692.16;5346241;32;34032;-73
2022/06/17 13:34:54;;;;;;;;;;;;;;;27.48;29.11;100713.91;5362409;32;34672;-70
2022/06/17 13:38:07;;;;;;;;;;;;;;;27.72;28.17;100706.97;5345029;32;34922;-71
2022/06/17 13:41:14;;;;;;;;;;;;;;;27.29;27.00;100697.13;5311450;32;35448;-69
2022/06/17 13:44:27;;;;;;;;;;;;;;;28.17;23.75;100700.34;5355365;32;35057;-69
2022/06/17 13:47:49;;;;;;;;;;;;;;;28.23;22.31;100707.78;5345144;32;44473;-71
2022/06/17 13:51:10;;;;;;;;;;;;;;;28.78;22.66;100699.03;5357444;32;34721;-71
2022/06/17 13:54:16;;;;;;;;;;;;;;;28.32;23.59;100691.44;5338443;32;34586;-73
2022/06/17 13:57:21;;;;;;;;;;;;;;;27.48;25.48;100704.97;5344708;32;34712;-70
2022/06/17 14:00:32;;;;;;;;;;;;;;;27.53;25.89;100700.78;5358402;32;34782;-70
2022/06/17 14:03:54;;;;;;;;;;;;;;;27.93;25.85;100701.13;5340133;32;44715;-74
2022/06/17 14:06:57;;;;;;;;;;;;;;;28.01;25.56;100704.69;5353205;32;35051;-69
2022/06/17 14:10:00;;;;;;;;;;;;;;;27.52;26.20;100698.25;5341811;32;45524;-73
2022/06/17 14:13:17;;;;;;;;;;;;;;;27.94;26.37;100686.59;5346852;32;34844;-72
2022/06/17 14:16:30;;;;;;;;;;;;;;;27.43;27.44;100694.66;5358904;32;35863;-69
2022/06/17 14:19:42;;;;;;;;;;;;;;;28.34;25.94;100688.59;5341270;32;46989;-70
2022/06/17 14:23:04;;;;;;;;;;;;;;;27.84;26.66;100673.25;5358159;32;35232;-70
2022/06/17 14:26:07;;;;;;;;;;;;;;;27.65;27.85;100670.81;5345754;32;47572;-74
2022/06/17 14:29:13;;;;;;;;;;;;;;;28.05;27.62;100676.34;5343739;32;34937;-72
2022/06/17 14:32:17;;;;;;;;;;;;;;;28.71;26.28;100671.81;5359365;32;35173;-70
2022/06/17 14:35:27;;;;;;;;;;;;;;;28.09;27.41;100681.41;5343585;32;35154;-72
2022/06/17 14:38:34;;;;;;;;;;;;;;;27.81;28.45;100670.87;5350906;32;44579;-72
2022/06/17 14:45:06;;;;;;;;;;;;;;;27.48;29.64;100686.09;5345039;32;46765;-69
2022/06/17 14:48:11;;;;;;;;;;;;;;;27.03;30.19;100687.16;5361281;32;34453;-73
2022/06/17 14:51:31;;;;;;;;;;;;;;;27.24;29.70;100676.00;5344480;32;35216;-72
2022/06/17 14:54:33;;;;;;;;;;;;;;;27.24;29.22;100678.72;5359976;32;44430;-69
2022/06/17 14:57:46;;;;;;;;;;;;;;;26.55;30.56;100683.12;5342922;32;34850;-70
2022/06/17 15:00:48;;;;;;;;;;;;;;;26.41;29.96;100665.66;5349145;32;34712;-72
2022/06/17 15:03:56;;;;;;;;;;;;;;;26.53;29.46;100673.50;5352279;32;36066;-70
2022/06/17 15:07:02;;;;;;;;;;;;;;;26.81;28.40;100680.47;5342345;32;46866;-73
2022/06/17 15:10:27;;;;;;;;;;;;;;;27.08;28.06;100681.34;5358768;32;34826;-72
2022/06/17 15:16:58;;;;;;;;;;;;;;;27.59;26.89;100679.56;5344672;32;35005;-70
2022/06/17 15:20:03;;;;;;;;;;;;;;;26.84;27.98;100672.03;5358288;32;45556;-69
2022/06/17 15:23:14;;;;;;;;;;;;;;;26.66;28.51;100674.81;5334091;32;35574;-71
2022/06/17 15:26:17;;;;;;;;;;;;;;;26.67;27.76;100675.66;5360240;32;34638;-72
2022/06/17 15:29:20;;;;;;;;;;;;;;;26.87;27.86;100663.66;5343713;32;36376;-70
2022/06/17 15:32:22;;;;;;;;;;;;;;;26.71;27.64;100666.22;5353896;32;34269;-70
2022/06/17 15:35:31;;;;;;;;;;;;;;;26.31;28.28;100672.94;5350528;32;36249;-74
2022/06/17 15:38:38;;;;;;;;;;;;;;;26.80;27.86;100665.28;5334120;32;46859;-71
2022/06/17 15:41:48;;;;;;;;;;;;;;;26.73;27.78;100677.72;5345008;32;34575;-71
2022/06/17 15:44:58;;;;;;;;;;;;;;;26.43;27.50;100671.75;5344837;32;35166;-70
2022/06/17 15:48:01;;;;;;;;;;;;;;;26.45;27.37;100671.56;5355354;32;44779;-70
2022/06/17 15:51:04;;;;;;;;;;;;;;;27.00;26.79;100669.47;5346102;32;35695;-72
2022/06/17 15:54:06;;;;;;;;;;;;;;;26.40;27.45;100680.13;5341537;32;34963;-73
2022/06/17 15:57:31;;;;;;;;;;;;;;;26.89;26.67;100677.81;5357854;32;36281;-71
2022/06/17 16:00:34;;;;;;;;;;;;;;;26.65;26.21;100677.63;5344753;32;44358;-72
2022/06/17 16:03:38;;;;;;;;;;;;;;;27.01;25.50;100678.41;5356239;32;35451;-73
2022/06/17 16:06:42;;;;;;;;;;;;;;;26.52;25.94;100685.28;5345665;32;35413;-69
2022/06/17 16:09:45;;;;;;;;;;;;;;;26.31;26.20;100691.81;5347422;32;35537;-71
2022/06/17 16:12:50;;;;;;;;;;;;;;;26.39;26.15;100693.72;5350838;32;35771;-71
2022/06/17 16:15:55;;;;;;;;;;;;;;;26.51;25.78;100670.97;5340401;32;35585;-69
2022/06/17 16:19:03;;;;;;;;;;;;;;;26.67;25.89;100689.13;5355736;32;43252;-73